Ala Coushatta Ind Res, Texas
Current Conditions -  °F | °C
As of 11:55 PM on Wednesday 17 Dec 2014 (Local Time) from K6R3 Reporting Station
Overcast Overcast  
Wind Chill: 56°   Ceiling: 1200
Heat Index: 56°   Visibility: 7mi
Dew Point: 51°   Wind: 0mph
Humidity: 83%   Direction: NA
Pressure: 30.14"   Gusts: NA
Location:  30.7078°N, 94.8036°W
Report Text: K6R3 180555Z AUTO 00000KT 7SM OVC012 14/11 A3014 RMK AO2 T01350107 10140 20133 401620037
Loading
Personal Weather Stations






























Interactive Weather Map New forecast layout! Learn more

10-Day Weather Forecast

Advertisements
Track Severe Weather on mobile